createdAt,value
2022-08-11T00:00:01.275Z,8.95
2022-08-11T00:02:35.653Z,7.03
2022-08-11T00:05:08.934Z,6.50
2022-08-11T00:07:45.058Z,9.57
2022-08-11T00:10:16.687Z,8.52
2022-08-11T00:12:53.698Z,6.65
2022-08-11T00:15:23.248Z,6.30
2022-08-11T00:17:58.330Z,8.57
2022-08-11T00:20:32.799Z,7.53
2022-08-11T00:23:04.912Z,5.82
2022-08-11T00:25:40.292Z,8.52
2022-08-11T00:28:32.550Z,6.45
2022-08-11T00:31:05.396Z,6.70
2022-08-11T00:33:44.258Z,7.85
2022-08-11T00:36:23.394Z,9.65
2022-08-11T00:38:55.799Z,8.30
2022-08-11T00:41:36.270Z,6.38
2022-08-11T00:44:38.689Z,10.38
2022-08-11T00:47:18.937Z,10.40
2022-08-11T00:49:59.910Z,7.38
2022-08-11T00:52:46.463Z,8.18
2022-08-11T00:55:56.027Z,9.52
2022-08-11T00:59:00.287Z,6.55
2022-08-11T01:01:45.058Z,7.03
2022-08-11T01:04:35.148Z,9.13
2022-08-11T01:08:01.002Z,7.90
2022-08-11T01:10:59.962Z,8.88
2022-08-11T01:14:08.183Z,9.57
2022-08-11T01:17:08.959Z,9.18
2022-08-11T01:20:46.539Z,13.15
2022-08-11T01:23:53.374Z,8.68
2022-08-11T01:26:51.962Z,8.13
2022-08-11T01:30:03.803Z,9.07
2022-08-11T01:33:05.426Z,10.60
2022-08-11T01:36:01.655Z,7.78
2022-08-11T01:39:00.195Z,10.43
2022-08-11T01:42:01.138Z,9.98
2022-08-11T01:45:00.736Z,8.07
2022-08-11T01:47:54.327Z,9.80
2022-08-11T01:50:37.490Z,10.50
2022-08-11T01:53:20.208Z,11.02
2022-08-11T01:55:57.695Z,11.27
2022-08-11T01:58:43.385Z,9.80
2022-08-11T02:01:29.657Z,8.55
2022-08-11T02:04:09.755Z,13.43
2022-08-11T02:06:58.523Z,12.25
2022-08-11T02:09:54.826Z,13.20
2022-08-11T02:12:38.040Z,9.27
2022-08-11T02:15:17.985Z,7.90
2022-08-11T02:18:00.363Z,10.00
2022-08-11T02:20:50.633Z,11.55
2022-08-11T02:24:04.178Z,11.52
2022-08-11T02:26:41.982Z,12.80
2022-08-11T02:29:20.414Z,9.80
2022-08-11T02:32:28.607Z,10.20
2022-08-11T02:35:07.331Z,8.32
2022-08-11T02:37:50.526Z,8.88
2022-08-11T02:40:35.915Z,10.05
2022-08-11T02:43:14.486Z,10.52
2022-08-11T02:46:02.648Z,10.52
2022-08-11T02:49:09.168Z,8.05
2022-08-11T02:51:44.221Z,9.45
2022-08-11T02:54:23.035Z,7.70
2022-08-11T02:56:58.858Z,12.50
2022-08-11T02:59:52.667Z,9.57
2022-08-11T03:02:50.550Z,7.07
2022-08-11T03:05:40.450Z,8.02
2022-08-11T03:08:31.448Z,7.57
2022-08-11T03:11:26.328Z,8.98
2022-08-11T03:14:28.997Z,10.25
2022-08-11T03:17:08.032Z,9.48
2022-08-11T03:19:48.149Z,8.88
2022-08-11T03:22:25.377Z,11.85
2022-08-11T03:25:03.595Z,9.13
2022-08-11T03:27:45.758Z,11.13
2022-08-11T03:30:18.093Z,10.75
2022-08-11T03:33:41.844Z,8.27
2022-08-11T03:36:33.335Z,10.15
2022-08-11T03:39:32.223Z,10.02
2022-08-11T03:42:12.629Z,8.70
2022-08-11T03:44:57.758Z,11.68
2022-08-11T03:47:39.649Z,10.57
2022-08-11T03:50:34.039Z,9.38
2022-08-11T03:53:16.702Z,8.85
2022-08-11T03:56:14.397Z,10.05
2022-08-11T03:59:17.501Z,16.23
2022-08-11T04:02:26.343Z,10.82
2022-08-11T04:05:30.937Z,10.93
2022-08-11T04:08:35.711Z,11.02
2022-08-11T04:11:46.646Z,11.60
2022-08-11T04:15:09.467Z,12.82
2022-08-11T04:18:19.775Z,12.38
2022-08-11T04:21:05.198Z,11.63
2022-08-11T04:24:35.706Z,10.90
2022-08-11T04:27:36.956Z,11.88
2022-08-11T04:30:15.088Z,16.85
2022-08-11T04:33:18.177Z,14.27
2022-08-11T04:36:00.053Z,10.18
2022-08-11T04:38:59.028Z,10.15
2022-08-11T04:42:20.499Z,9.25
2022-08-11T04:45:38.179Z,12.13
2022-08-11T04:48:58.106Z,11.45
2022-08-11T04:52:14.450Z,9.45
2022-08-11T04:55:19.513Z,11.20
2022-08-11T04:58:14.872Z,9.13
2022-08-11T05:01:15.654Z,12.43
2022-08-11T05:04:05.774Z,11.40
2022-08-11T05:07:18.793Z,11.10
2022-08-11T05:10:20.366Z,10.77
2022-08-11T05:12:54.059Z,12.63
2022-08-11T05:15:57.046Z,8.68
2022-08-11T05:18:48.342Z,12.25
2022-08-11T05:21:44.686Z,9.55
2022-08-11T05:24:39.530Z,11.95
2022-08-11T05:27:27.993Z,9.98
2022-08-11T05:30:21.101Z,10.13
2022-08-11T05:33:17.424Z,7.88
2022-08-11T05:36:02.015Z,8.73
2022-08-11T05:38:55.360Z,9.30
2022-08-11T05:41:43.694Z,12.07
2022-08-11T05:44:36.024Z,8.80
2022-08-11T05:47:23.977Z,10.10
2022-08-11T05:50:13.588Z,9.93
2022-08-11T05:53:09.171Z,10.90
2022-08-11T05:56:03.024Z,11.40
2022-08-11T05:58:42.633Z,12.38
2022-08-11T06:01:13.471Z,10.68
2022-08-11T06:04:04.001Z,9.98
2022-08-11T06:06:33.691Z,13.40
2022-08-11T06:09:04.626Z,11.40
2022-08-11T06:11:44.326Z,10.25
2022-08-11T06:14:17.830Z,12.35
2022-08-11T06:16:50.678Z,9.73
2022-08-11T06:19:25.662Z,7.72
2022-08-11T06:21:55.328Z,8.57
2022-08-11T06:24:25.713Z,8.68
2022-08-11T06:27:11.869Z,12.05
2022-08-11T06:29:54.550Z,11.18
2022-08-11T06:32:29.887Z,11.13
2022-08-11T06:35:12.185Z,11.32
2022-08-11T06:38:04.564Z,9.43
2022-08-11T06:41:10.069Z,16.75
2022-08-11T06:43:55.753Z,10.02
2022-08-11T06:46:30.320Z,9.60
2022-08-11T06:49:02.684Z,11.07
2022-08-11T06:51:32.547Z,11.18
2022-08-11T06:54:05.526Z,9.43
2022-08-11T07:00:05.810Z,7.60
2022-08-11T07:02:39.384Z,10.57
2022-08-11T07:05:13.678Z,8.23
2022-08-11T07:08:35.997Z,8.13
2022-08-11T07:11:39.505Z,10.25
2022-08-11T07:14:38.219Z,7.75
2022-08-11T07:17:12.489Z,7.63
2022-08-11T07:20:06.137Z,6.72
2022-08-11T07:22:56.190Z,9.43
2022-08-11T07:25:44.002Z,16.33
2022-08-11T07:28:33.059Z,7.25
2022-08-11T07:31:08.970Z,11.70
2022-08-11T07:34:06.379Z,11.52
2022-08-11T07:36:41.190Z,10.13
2022-08-11T07:39:17.143Z,9.63
2022-08-11T07:41:47.410Z,6.50
2022-08-11T07:44:18.141Z,7.80
2022-08-11T07:47:07.904Z,7.50
2022-08-11T07:49:57.693Z,10.75
2022-08-11T07:52:34.978Z,10.30
2022-08-11T07:55:08.605Z,7.50
2022-08-11T07:58:16.664Z,6.40
2022-08-11T08:01:21.666Z,10.52
2022-08-11T08:04:11.186Z,10.10
2022-08-11T08:06:58.527Z,6.50
2022-08-11T08:09:44.743Z,7.78
2022-08-11T08:12:33.291Z,8.15
2022-08-11T08:15:25.577Z,15.40
2022-08-11T08:18:09.506Z,7.72
2022-08-11T08:20:50.858Z,13.00
2022-08-11T08:23:33.789Z,11.68
2022-08-11T08:26:16.702Z,10.77
2022-08-11T08:28:47.748Z,10.07
2022-08-11T08:31:16.356Z,12.25
2022-08-11T08:33:45.321Z,19.30
2022-08-11T08:36:16.522Z,12.60
2022-08-11T08:38:50.005Z,10.15
2022-08-11T08:41:23.797Z,12.35
2022-08-11T08:44:27.386Z,14.57
2022-08-11T08:46:52.752Z,10.85
2022-08-11T08:49:28.740Z,13.88
2022-08-11T08:52:29.629Z,6.55
2022-08-11T08:54:58.959Z,11.18
2022-08-11T08:57:31.463Z,8.45
2022-08-11T09:00:12.583Z,7.60
2022-08-11T09:02:42.893Z,6.68
2022-08-11T09:05:12.314Z,6.82
2022-08-11T09:07:43.442Z,6.75
2022-08-11T09:10:12.789Z,8.25
2022-08-11T09:12:44.295Z,6.93
2022-08-11T09:15:15.156Z,4.68
2022-08-11T09:17:50.893Z,3.78
2022-08-11T09:20:21.777Z,4.72
2022-08-11T09:24:08.720Z,8.73
2022-08-11T09:26:22.555Z,7.18
2022-08-11T09:29:00.826Z,5.90
2022-08-11T09:31:38.934Z,7.53
2022-08-11T09:34:09.547Z,5.53
2022-08-11T09:36:58.516Z,7.88
2022-08-11T09:39:48.260Z,5.75
2022-08-11T09:42:23.404Z,9.60
2022-08-11T09:44:54.051Z,6.35
2022-08-11T09:47:25.349Z,7.18
2022-08-11T09:50:00.681Z,7.50
2022-08-11T09:52:34.587Z,9.23
2022-08-11T09:55:11.341Z,6.05
2022-08-11T09:57:59.756Z,4.20
2022-08-11T10:00:37.971Z,6.90
2022-08-11T10:03:09.872Z,10.05
2022-08-11T10:05:57.541Z,7.15
2022-08-11T10:08:30.184Z,8.68
2022-08-11T10:11:01.002Z,3.00
2022-08-11T10:14:33.682Z,6.75
2022-08-11T10:16:46.281Z,2.40
2022-08-11T10:19:16.295Z,6.25
2022-08-11T10:22:10.727Z,7.57
2022-08-11T10:24:57.436Z,5.00
2022-08-11T10:27:29.154Z,8.38
2022-08-11T10:30:34.720Z,10.63
2022-08-11T10:33:37.651Z,12.95
2022-08-11T10:36:16.725Z,10.32
2022-08-11T10:38:52.479Z,9.75
2022-08-11T10:42:01.861Z,6.78
2022-08-11T10:44:34.207Z,12.70
2022-08-11T10:47:21.548Z,6.43
2022-08-11T10:50:10.788Z,8.32
2022-08-11T10:52:58.200Z,6.53
2022-08-11T10:55:45.595Z,5.93
2022-08-11T10:58:33.422Z,8.00
2022-08-11T11:01:04.576Z,9.63
2022-08-11T11:03:35.619Z,8.70
2022-08-11T11:06:27.681Z,7.93
2022-08-11T11:09:04.764Z,13.55
2022-08-11T11:11:56.031Z,4.57
2022-08-11T11:14:49.917Z,7.05
2022-08-11T11:17:49.369Z,13.98
2022-08-11T11:20:37.158Z,5.18
2022-08-11T11:23:18.029Z,4.75
2022-08-11T11:26:27.949Z,6.72
2022-08-11T11:29:35.565Z,10.20
2022-08-11T11:32:26.226Z,4.85
2022-08-11T11:35:12.943Z,4.75
2022-08-11T11:38:03.498Z,5.13
2022-08-11T11:40:32.956Z,4.30
2022-08-11T11:43:02.569Z,6.20
2022-08-11T11:45:33.928Z,3.53
2022-08-11T11:48:04.893Z,5.50
2022-08-11T11:50:36.174Z,3.88
2022-08-11T11:53:09.230Z,4.38
2022-08-11T11:55:39.181Z,4.55
2022-08-11T11:58:25.754Z,4.30
2022-08-11T12:01:12.797Z,7.03
2022-08-11T12:03:45.523Z,7.10
2022-08-11T12:06:15.548Z,3.33
2022-08-11T12:08:45.281Z,4.00
2022-08-11T12:11:32.522Z,5.38
2022-08-11T12:14:10.366Z,4.90
2022-08-11T12:16:42.992Z,4.53
2022-08-11T12:19:15.911Z,3.60
2022-08-11T12:22:00.859Z,3.33
2022-08-11T12:24:48.633Z,4.13
2022-08-11T12:27:25.753Z,2.30
2022-08-11T12:29:57.674Z,3.33
2022-08-11T12:32:31.565Z,4.55
2022-08-11T12:35:02.441Z,3.55
2022-08-11T12:37:34.321Z,3.25
2022-08-11T12:40:43.099Z,3.83
2022-08-11T12:43:38.439Z,2.58
2022-08-11T12:46:11.559Z,2.75
2022-08-11T12:49:03.679Z,2.17
2022-08-11T12:52:11.213Z,3.33
2022-08-11T12:54:52.461Z,2.60
2022-08-11T12:57:48.255Z,4.15
2022-08-11T13:00:37.033Z,4.95
2022-08-11T13:03:25.765Z,4.32
2022-08-11T13:05:56.924Z,4.38
2022-08-11T13:08:29.747Z,6.47
2022-08-11T13:11:19.756Z,3.05
2022-08-11T13:13:57.161Z,4.38
2022-08-11T13:16:30.600Z,3.05
2022-08-11T13:19:01.363Z,4.55
2022-08-11T13:21:31.253Z,5.00
2022-08-11T13:24:03.768Z,3.65
2022-08-11T13:26:47.274Z,4.18
2022-08-11T13:29:24.007Z,5.18
2022-08-11T13:31:54.205Z,4.45
2022-08-11T13:34:27.855Z,2.88
2022-08-11T13:37:01.727Z,3.90
2022-08-11T13:39:35.393Z,2.83
2022-08-11T13:42:05.779Z,2.75
2022-08-11T13:44:38.314Z,2.97
2022-08-11T13:47:09.927Z,1.88
2022-08-11T13:49:41.517Z,4.57
2022-08-11T13:52:15.303Z,3.03
2022-08-11T13:54:48.400Z,2.90
2022-08-11T13:58:08.271Z,4.57
2022-08-11T14:00:23.559Z,7.53
2022-08-11T14:02:58.941Z,3.45
2022-08-11T14:05:29.925Z,5.53
2022-08-11T14:08:03.220Z,3.53
2022-08-11T14:10:39.120Z,4.43
2022-08-11T14:13:29.178Z,3.08
2022-08-11T14:16:15.266Z,6.13
2022-08-11T14:18:46.877Z,3.95
2022-08-11T14:21:36.024Z,6.18
2022-08-11T14:24:06.390Z,3.95
2022-08-11T14:26:39.274Z,3.45
2022-08-11T14:29:14.490Z,3.75
2022-08-11T14:31:47.682Z,4.90
2022-08-11T14:34:19.053Z,4.65
2022-08-11T14:36:52.466Z,3.33
2022-08-11T14:39:25.127Z,4.28
2022-08-11T14:42:14.834Z,6.32
2022-08-11T14:45:03.989Z,1.92
2022-08-11T14:47:35.325Z,7.10
2022-08-11T14:50:10.416Z,5.05
2022-08-11T14:52:46.208Z,2.80
2022-08-11T14:55:33.642Z,4.05
2022-08-11T14:58:06.234Z,4.30
2022-08-11T15:00:36.252Z,3.25
2022-08-11T15:03:12.083Z,3.50
2022-08-11T15:05:56.218Z,4.22
2022-08-11T15:08:42.823Z,1.83
2022-08-11T15:11:27.156Z,6.80
2022-08-11T15:13:58.365Z,4.20
2022-08-11T15:16:45.334Z,3.75
2022-08-11T15:19:17.257Z,4.80
2022-08-11T15:22:03.336Z,4.25
2022-08-11T15:24:33.800Z,8.30
2022-08-11T15:27:27.572Z,6.40
2022-08-11T15:30:32.615Z,2.83
2022-08-11T15:33:24.426Z,3.30
2022-08-11T15:36:11.932Z,5.60
2022-08-11T15:38:46.349Z,3.75
2022-08-11T15:41:36.402Z,4.00
2022-08-11T15:44:58.835Z,4.50
2022-08-11T15:47:22.765Z,6.50
2022-08-11T15:50:10.953Z,3.58
2022-08-11T15:52:49.650Z,4.05
2022-08-11T15:55:19.958Z,3.83
2022-08-11T15:58:10.742Z,4.25
2022-08-11T16:01:04.324Z,1.92
2022-08-11T16:04:09.166Z,2.90
2022-08-11T16:06:49.945Z,7.60
2022-08-11T16:09:22.914Z,5.00
2022-08-11T16:11:52.953Z,1.45
2022-08-11T16:14:54.637Z,2.17
2022-08-11T16:17:28.047Z,3.90
2022-08-11T16:20:08.916Z,3.13
2022-08-11T16:23:00.419Z,1.50
2022-08-11T16:27:01.928Z,4.97
2022-08-11T16:28:31.712Z,2.55
2022-08-11T16:31:04.240Z,5.20
2022-08-11T16:33:50.337Z,4.25
2022-08-11T16:36:41.105Z,3.30
2022-08-11T16:39:11.754Z,2.50
2022-08-11T16:41:59.837Z,1.98
2022-08-11T16:44:49.609Z,3.72
2022-08-11T16:48:35.213Z,13.38
2022-08-11T16:50:12.402Z,3.60
2022-08-11T16:52:42.818Z,2.38
2022-08-11T16:55:11.858Z,2.22
2022-08-11T16:58:18.832Z,1.60
2022-08-11T17:00:51.317Z,1.60
2022-08-11T17:03:40.540Z,4.68
2022-08-11T17:06:29.342Z,2.88
2022-08-11T17:09:22.813Z,4.25
2022-08-11T17:12:17.546Z,2.75
2022-08-11T17:14:51.595Z,5.32
2022-08-11T17:17:26.281Z,5.57
2022-08-11T17:20:39.549Z,2.22
2022-08-11T17:23:05.443Z,5.43
2022-08-11T17:26:03.462Z,5.45
2022-08-11T17:28:25.983Z,4.60
2022-08-11T17:31:17.778Z,2.85
2022-08-11T17:34:11.139Z,2.97
2022-08-11T17:36:44.750Z,2.03
2022-08-11T17:39:16.232Z,2.53
2022-08-11T17:42:04.411Z,1.88
2022-08-11T17:44:53.033Z,2.80
2022-08-11T17:47:39.914Z,2.20
2022-08-11T17:50:17.864Z,2.97
2022-08-11T17:53:05.859Z,4.43
2022-08-11T17:55:54.099Z,4.18
2022-08-11T17:58:43.956Z,3.55
2022-08-11T18:01:14.019Z,43.55
2022-08-11T18:03:53.038Z,5.85
2022-08-11T18:06:32.581Z,5.45
2022-08-11T18:09:22.666Z,2.72
2022-08-11T18:12:12.746Z,5.13
2022-08-11T18:15:05.383Z,1.80
2022-08-11T18:17:51.994Z,1.80
2022-08-11T18:20:38.840Z,8.15
2022-08-11T18:23:40.328Z,1.67
2022-08-11T18:26:37.928Z,1.30
2022-08-11T18:29:25.975Z,26.73
2022-08-11T18:32:21.242Z,59.20
2022-08-11T18:35:11.008Z,2.42
2022-08-11T18:38:04.863Z,3.53
2022-08-11T18:40:54.268Z,3.65
2022-08-11T18:43:43.015Z,1.40
2022-08-11T18:46:32.112Z,2.05
2022-08-11T18:49:27.243Z,9.82
2022-08-11T18:52:34.195Z,2.92
2022-08-11T18:55:22.812Z,2.88
2022-08-11T18:58:11.080Z,2.13
2022-08-11T19:00:59.225Z,3.92
2022-08-11T19:03:48.588Z,1.85
2022-08-11T19:06:41.025Z,1.92
2022-08-11T19:09:33.209Z,2.50
2022-08-11T19:12:21.107Z,2.55
2022-08-11T19:15:10.529Z,2.33
2022-08-11T19:18:01.479Z,3.15
2022-08-11T19:20:51.981Z,1.95
2022-08-11T19:23:52.416Z,2.42
2022-08-11T19:26:40.521Z,3.00
2022-08-11T19:30:04.718Z,2.92
2022-08-11T19:32:35.649Z,6.78
2022-08-11T19:35:22.796Z,4.65
2022-08-11T19:38:10.717Z,2.88
2022-08-11T19:40:58.933Z,2.83
2022-08-11T19:43:48.053Z,5.63
2022-08-11T19:46:37.159Z,4.78
2022-08-11T19:49:24.591Z,7.20
2022-08-11T19:52:11.137Z,6.47
2022-08-11T19:54:59.821Z,3.30
2022-08-11T19:57:50.224Z,5.82
2022-08-11T20:00:38.832Z,3.10
2022-08-11T20:03:27.777Z,4.63
2022-08-11T20:06:16.150Z,3.60
2022-08-11T20:09:04.572Z,3.95
2022-08-11T20:11:56.164Z,4.93
2022-08-11T20:14:47.308Z,6.72
2022-08-11T20:17:35.170Z,6.45
2022-08-11T20:20:23.635Z,5.60
2022-08-11T20:23:11.694Z,5.32
2022-08-11T20:26:34.616Z,6.90
2022-08-11T20:29:30.501Z,4.22
2022-08-11T20:32:18.927Z,6.43
2022-08-11T20:35:06.549Z,8.40
2022-08-11T20:37:54.739Z,5.10
2022-08-11T20:40:43.427Z,4.10
2022-08-11T20:44:06.262Z,6.72
2022-08-11T20:46:39.110Z,5.47
2022-08-11T20:49:40.951Z,5.95
2022-08-11T20:52:38.624Z,4.80
2022-08-11T20:55:46.439Z,6.43
2022-08-11T20:59:11.109Z,5.43
2022-08-11T21:01:44.165Z,6.57
2022-08-11T21:04:32.511Z,4.78
2022-08-11T21:07:28.248Z,3.05
2022-08-11T21:10:22.721Z,3.80
2022-08-11T21:13:23.965Z,3.92
2022-08-11T21:16:33.394Z,6.03
2022-08-11T21:20:00.033Z,6.40
2022-08-11T21:22:59.202Z,4.20
2022-08-11T21:25:59.261Z,4.65
2022-08-11T21:28:45.822Z,1.98
2022-08-11T21:31:33.076Z,2.88
2022-08-11T21:34:20.325Z,2.42
2022-08-11T21:37:08.196Z,4.07
2022-08-11T21:39:58.084Z,3.83
2022-08-11T21:42:46.687Z,3.85
2022-08-11T21:45:34.758Z,2.90
2022-08-11T21:48:23.208Z,3.72
2022-08-11T21:51:08.828Z,4.25
2022-08-11T21:53:54.894Z,3.67
2022-08-11T21:56:43.939Z,3.85
2022-08-11T21:59:30.485Z,5.70
2022-08-11T22:02:17.943Z,3.63
2022-08-11T22:05:03.848Z,4.07
2022-08-11T22:07:50.481Z,3.78
2022-08-11T22:10:41.960Z,4.22
2022-08-11T22:13:32.529Z,4.30
2022-08-11T22:16:19.321Z,7.75
2022-08-11T22:19:08.475Z,5.95
2022-08-11T22:22:02.413Z,4.60
2022-08-11T22:24:52.983Z,5.28
2022-08-11T22:27:40.859Z,4.53
2022-08-11T22:30:29.813Z,5.00
2022-08-11T22:33:24.378Z,4.10
2022-08-11T22:36:14.897Z,8.05
2022-08-11T22:39:03.724Z,6.35
2022-08-11T22:41:50.774Z,4.95
2022-08-11T22:44:37.089Z,5.88
2022-08-11T22:47:34.911Z,6.68
2022-08-11T22:50:29.291Z,4.00
2022-08-11T22:53:16.237Z,3.90
2022-08-11T22:56:02.608Z,3.83
2022-08-11T22:58:50.320Z,4.15
2022-08-11T23:01:37.464Z,3.38
2022-08-11T23:04:26.030Z,4.78
2022-08-11T23:07:12.935Z,5.60
2022-08-11T23:10:18.899Z,6.32
2022-08-11T23:13:05.507Z,6.60
2022-08-11T23:15:51.947Z,9.32
2022-08-11T23:18:38.541Z,5.43
2022-08-11T23:21:26.874Z,9.95
2022-08-11T23:24:13.287Z,56.22
2022-08-11T23:27:00.820Z,97.25
2022-08-11T23:29:48.884Z,88.75
2022-08-11T23:32:34.334Z,41.55
2022-08-11T23:35:38.533Z,26.52
2022-08-11T23:38:27.000Z,15.82
2022-08-11T23:41:13.764Z,21.67
2022-08-11T23:43:59.831Z,13.70
2022-08-11T23:46:46.482Z,9.70
2022-08-11T23:49:33.710Z,8.38
2022-08-11T23:52:20.300Z,5.45
2022-08-11T23:55:08.760Z,5.13
2022-08-11T23:57:55.695Z,6.57
